createdAt,value
2019-01-11T00:02:09.414Z,3.40
2019-01-11T00:04:38.001Z,3.30
2019-01-11T00:07:06.586Z,3.30
2019-01-11T00:09:35.446Z,2.53
2019-01-11T00:12:04.058Z,4.10
2019-01-11T00:14:33.686Z,3.57
2019-01-11T00:17:02.350Z,3.40
2019-01-11T00:19:30.949Z,3.00
2019-01-11T00:21:59.881Z,2.97
2019-01-11T00:24:28.530Z,3.93
2019-01-11T00:26:57.189Z,3.57
2019-01-11T00:29:25.822Z,3.60
2019-01-11T00:31:54.705Z,3.10
2019-01-11T00:34:23.353Z,3.03
2019-01-11T00:36:51.962Z,3.47
2019-01-11T00:39:20.702Z,2.73
2019-01-11T00:41:49.314Z,3.37
2019-01-11T00:44:17.929Z,2.07
2019-01-11T00:46:46.569Z,2.00
2019-01-11T00:49:15.149Z,1.70
2019-01-11T00:51:44.142Z,2.70
2019-01-11T00:54:12.710Z,2.60
2019-01-11T00:56:41.314Z,1.90
2019-01-11T00:59:09.949Z,2.27
2019-01-11T01:01:38.611Z,2.97
2019-01-11T01:04:07.265Z,3.10
2019-01-11T01:06:36.125Z,3.60
2019-01-11T01:09:07.761Z,3.47
2019-01-11T01:11:36.497Z,2.83
2019-01-11T01:14:05.145Z,2.97
2019-01-11T01:16:33.770Z,3.10
2019-01-11T01:19:02.349Z,3.10
2019-01-11T01:21:30.981Z,2.97
2019-01-11T01:23:59.641Z,2.90
2019-01-11T01:26:28.346Z,2.87
2019-01-11T01:28:57.049Z,4.17
2019-01-11T01:31:26.186Z,3.10
2019-01-11T01:33:54.765Z,5.07
2019-01-11T01:36:23.385Z,5.97
2019-01-11T01:38:52.033Z,8.23
2019-01-11T01:41:20.631Z,3.73
2019-01-11T01:43:49.329Z,4.00
2019-01-11T01:46:17.991Z,4.87
2019-01-11T01:48:46.577Z,4.07
2019-01-11T01:51:15.181Z,4.80
2019-01-11T01:53:45.201Z,3.37
2019-01-11T01:56:13.862Z,4.83
2019-01-11T01:58:42.491Z,4.17
2019-01-11T02:01:11.125Z,3.67
2019-01-11T02:03:39.950Z,4.83
2019-01-11T02:06:08.649Z,3.47
2019-01-11T02:08:37.281Z,5.10
2019-01-11T02:11:06.117Z,4.30
2019-01-11T02:13:34.785Z,3.50
2019-01-11T02:16:03.453Z,5.07
2019-01-11T02:18:32.134Z,6.27
2019-01-11T02:21:01.137Z,3.13
2019-01-11T02:23:30.725Z,5.87
2019-01-11T02:25:59.309Z,5.27
2019-01-11T02:28:27.960Z,3.87
2019-01-11T02:30:56.578Z,3.53
2019-01-11T02:33:25.274Z,4.23
2019-01-11T02:35:53.869Z,4.10
2019-01-11T02:38:22.529Z,5.80
2019-01-11T02:40:51.366Z,4.30
2019-01-11T02:43:20.056Z,4.10
2019-01-11T02:45:48.692Z,4.07
2019-01-11T02:48:17.274Z,4.57
2019-01-11T02:50:45.890Z,3.77
2019-01-11T02:53:14.541Z,4.07
2019-01-11T02:55:43.765Z,4.63
2019-01-11T02:58:12.465Z,3.30
2019-01-11T03:00:41.114Z,3.23
2019-01-11T03:03:09.694Z,6.47
2019-01-11T03:05:38.313Z,4.73
2019-01-11T03:08:06.998Z,3.53
2019-01-11T03:10:35.909Z,3.20
2019-01-11T03:13:04.576Z,3.13
2019-01-11T03:15:33.221Z,3.50
2019-01-11T03:18:01.821Z,4.73
2019-01-11T03:20:30.919Z,4.90
2019-01-11T03:22:59.982Z,4.37
2019-01-11T03:25:28.580Z,3.30
2019-01-11T03:27:57.208Z,3.07
2019-01-11T03:30:25.857Z,3.03
2019-01-11T03:32:54.434Z,3.27
2019-01-11T03:35:23.528Z,4.40
2019-01-11T03:37:52.204Z,3.00
2019-01-11T03:40:22.490Z,4.10
2019-01-11T03:42:51.420Z,4.07
2019-01-11T03:45:21.036Z,3.23
2019-01-11T03:47:49.877Z,3.33
2019-01-11T03:50:18.662Z,4.00
2019-01-11T03:52:47.229Z,3.37
2019-01-11T03:55:16.095Z,3.77
2019-01-11T03:57:44.812Z,4.50
2019-01-11T04:00:15.822Z,4.07
2019-01-11T04:02:44.498Z,5.77
2019-01-11T04:05:13.098Z,3.97
2019-01-11T04:07:41.833Z,4.37
2019-01-11T04:10:15.986Z,4.67
2019-01-11T04:12:44.699Z,5.67
2019-01-11T04:15:13.531Z,6.23
2019-01-11T04:17:42.163Z,6.43
2019-01-11T04:20:13.966Z,5.90
2019-01-11T04:22:49.076Z,4.87
2019-01-11T04:25:19.734Z,5.43
2019-01-11T04:27:48.496Z,5.57
2019-01-11T04:30:18.820Z,6.67
2019-01-11T04:32:47.494Z,5.53
2019-01-11T04:35:16.295Z,4.90
2019-01-11T04:37:44.957Z,5.87
2019-01-11T04:40:15.147Z,5.70
2019-01-11T04:42:43.846Z,7.63
2019-01-11T04:45:12.450Z,5.93
2019-01-11T04:47:41.126Z,5.90
2019-01-11T04:50:11.166Z,6.37
2019-01-11T04:52:39.810Z,5.13
2019-01-11T04:55:08.393Z,5.20
2019-01-11T04:57:37.109Z,6.53
2019-01-11T05:00:08.636Z,6.10
2019-01-11T05:02:37.378Z,4.40
2019-01-11T05:05:06.038Z,3.93
2019-01-11T05:07:34.691Z,3.93
2019-01-11T05:10:05.044Z,6.17
2019-01-11T05:12:34.197Z,4.43
2019-01-11T05:15:02.813Z,4.73
2019-01-11T05:17:31.477Z,5.27
2019-01-11T05:20:00.367Z,5.90
2019-01-11T05:22:28.928Z,5.80
2019-01-11T05:24:58.046Z,5.10
2019-01-11T05:27:26.657Z,5.93
2019-01-11T05:29:55.313Z,5.23
2019-01-11T05:32:23.911Z,5.83
2019-01-11T05:34:52.626Z,6.90
2019-01-11T05:37:21.269Z,6.37
2019-01-11T05:39:49.843Z,6.47
2019-01-11T05:42:18.454Z,5.00
2019-01-11T05:44:47.117Z,6.00
2019-01-11T05:47:15.805Z,5.20
2019-01-11T05:49:44.521Z,5.17
2019-01-11T05:52:13.178Z,8.70
2019-01-11T05:54:42.561Z,6.20
2019-01-11T05:57:11.514Z,5.50
2019-01-11T05:59:40.417Z,5.97
2019-01-11T06:02:09.039Z,5.23
2019-01-11T06:04:48.309Z,6.43
2019-01-11T06:07:21.156Z,7.77
2019-01-11T06:09:49.769Z,7.27
2019-01-11T06:12:18.729Z,6.83
2019-01-11T06:14:47.313Z,4.73
2019-01-11T06:17:15.910Z,6.83
2019-01-11T06:19:44.618Z,5.20
2019-01-11T06:22:13.270Z,6.27
2019-01-11T06:24:41.869Z,5.63
2019-01-11T06:27:10.573Z,6.63
2019-01-11T06:29:39.478Z,6.03
2019-01-11T06:32:08.114Z,5.70
2019-01-11T06:34:36.717Z,6.83
2019-01-11T06:37:05.386Z,7.93
2019-01-11T06:39:33.969Z,4.33
2019-01-11T06:42:15.766Z,6.13
2019-01-11T06:44:44.449Z,6.67
2019-01-11T06:47:13.029Z,6.43
2019-01-11T06:49:45.768Z,7.57
2019-01-11T06:52:14.394Z,5.33
2019-01-11T06:54:42.990Z,7.33
2019-01-11T06:57:11.677Z,5.73
2019-01-11T06:59:40.347Z,6.30
2019-01-11T07:02:09.048Z,5.63
2019-01-11T07:04:37.752Z,5.80
2019-01-11T07:07:06.401Z,9.40
2019-01-11T07:09:35.372Z,6.60
2019-01-11T07:12:04.133Z,6.87
2019-01-11T07:14:32.792Z,10.57
2019-01-11T07:17:01.445Z,8.63
2019-01-11T07:19:30.053Z,6.20
2019-01-11T07:21:58.717Z,7.87
2019-01-11T07:24:27.547Z,8.03
2019-01-11T07:26:56.133Z,6.97
2019-01-11T07:29:24.774Z,5.67
2019-01-11T07:31:53.620Z,6.10
2019-01-11T07:34:22.269Z,5.10
2019-01-11T07:36:53.494Z,8.13
2019-01-11T07:39:29.861Z,5.07
2019-01-11T07:41:58.552Z,5.17
2019-01-11T07:44:27.331Z,6.40
2019-01-11T07:46:56.176Z,6.17
2019-01-11T07:49:25.081Z,4.93
2019-01-11T07:51:53.975Z,5.13
2019-01-11T07:54:22.634Z,6.33
2019-01-11T07:56:52.826Z,6.37
2019-01-11T07:59:22.121Z,7.43
2019-01-11T08:01:50.821Z,5.27
2019-01-11T08:04:19.529Z,8.67
2019-01-11T08:06:48.161Z,5.73
2019-01-11T08:09:16.765Z,7.17
2019-01-11T08:11:45.433Z,6.53
2019-01-11T08:14:14.119Z,9.87
2019-01-11T08:16:42.738Z,5.93
2019-01-11T08:19:11.477Z,7.40
2019-01-11T08:21:40.082Z,6.03
2019-01-11T08:24:08.811Z,6.53
2019-01-11T08:26:37.450Z,5.30
2019-01-11T08:29:06.302Z,6.67
2019-01-11T08:31:35.205Z,7.40
2019-01-11T08:34:03.802Z,8.03
2019-01-11T08:36:32.381Z,8.03
2019-01-11T08:39:01.104Z,8.33
2019-01-11T08:41:29.678Z,8.30
2019-01-11T08:43:58.332Z,9.83
2019-01-11T08:46:26.958Z,8.70
2019-01-11T08:48:55.603Z,6.80
2019-01-11T08:51:24.193Z,7.97
2019-01-11T08:53:52.802Z,9.63
2019-01-11T08:56:21.369Z,8.13
2019-01-11T08:58:50.766Z,7.77
2019-01-11T09:01:19.485Z,13.27
2019-01-11T09:03:48.153Z,12.03
2019-01-11T09:06:16.926Z,9.33
2019-01-11T09:08:45.781Z,8.10
2019-01-11T09:11:14.380Z,9.33
2019-01-11T09:13:43.041Z,9.60
2019-01-11T09:16:11.688Z,9.33
2019-01-11T09:18:43.830Z,10.80
2019-01-11T09:21:12.518Z,10.10
2019-01-11T09:23:41.945Z,9.10
2019-01-11T09:26:10.666Z,10.53
2019-01-11T09:28:40.978Z,9.57
2019-01-11T09:31:09.839Z,11.83
2019-01-11T09:33:38.601Z,12.40
2019-01-11T09:36:07.203Z,11.10
2019-01-11T09:38:35.893Z,12.13
2019-01-11T09:41:04.535Z,11.27
2019-01-11T09:43:33.154Z,12.70
2019-01-11T09:46:02.021Z,14.00
2019-01-11T09:48:30.608Z,13.47
2019-01-11T09:50:59.180Z,15.13
2019-01-11T09:53:27.819Z,13.20
2019-01-11T09:55:56.765Z,13.83
2019-01-11T09:58:25.369Z,15.80
2019-01-11T10:00:59.083Z,16.80
2019-01-11T10:03:24.472Z,14.00
2019-01-11T10:05:53.046Z,15.40
2019-01-11T10:08:21.791Z,16.73
2019-01-11T10:10:50.417Z,16.97
2019-01-11T10:13:19.261Z,14.63
2019-01-11T10:15:47.937Z,15.83
2019-01-11T10:18:16.826Z,18.30
2019-01-11T10:20:45.575Z,16.53
2019-01-11T10:23:14.325Z,16.17
2019-01-11T10:25:42.925Z,17.63
2019-01-11T10:28:11.528Z,19.23
2019-01-11T10:30:40.314Z,20.47
2019-01-11T10:33:09.020Z,18.03
2019-01-11T10:35:37.681Z,19.93
2019-01-11T10:38:06.289Z,18.03
2019-01-11T10:40:35.034Z,22.27
2019-01-11T10:43:03.629Z,18.23
2019-01-11T10:45:32.248Z,19.03
2019-01-11T10:48:00.909Z,22.27
2019-01-11T10:50:29.597Z,19.43
2019-01-11T10:52:58.329Z,18.53
2019-01-11T10:55:26.978Z,19.60
2019-01-11T10:57:55.641Z,22.07
2019-01-11T11:00:25.803Z,18.63
2019-01-11T11:02:54.983Z,20.60
2019-01-11T11:05:23.677Z,20.63
2019-01-11T11:07:52.459Z,22.10
2019-01-11T11:10:21.153Z,21.80
2019-01-11T11:12:49.807Z,22.07
2019-01-11T11:15:18.981Z,24.33
2019-01-11T11:17:47.660Z,23.27
2019-01-11T11:20:17.967Z,22.47
2019-01-11T11:22:46.661Z,19.70
2019-01-11T11:25:17.384Z,27.23
2019-01-11T11:27:46.012Z,21.83
2019-01-11T11:30:15.236Z,22.70
2019-01-11T11:32:55.906Z,22.70
2019-01-11T11:35:25.518Z,22.90
2019-01-11T11:37:54.197Z,20.63
2019-01-11T11:40:23.006Z,23.83
2019-01-11T11:42:51.601Z,23.57
2019-01-11T11:45:20.225Z,21.47
2019-01-11T11:47:48.809Z,22.73
2019-01-11T11:50:17.688Z,23.33
2019-01-11T11:52:46.305Z,26.03
2019-01-11T11:55:14.893Z,23.60
2019-01-11T11:57:43.587Z,24.33
2019-01-11T12:00:15.047Z,22.87
2019-01-11T12:02:43.937Z,24.57
2019-01-11T12:05:12.597Z,26.60
2019-01-11T12:07:41.257Z,26.40
2019-01-11T12:10:11.734Z,24.63
2019-01-11T12:12:40.427Z,25.90
2019-01-11T12:15:09.857Z,26.13
2019-01-11T12:17:38.457Z,29.37
2019-01-11T12:20:09.047Z,26.07
2019-01-11T12:22:37.669Z,22.77
2019-01-11T12:25:06.502Z,28.13
2019-01-11T12:27:35.178Z,25.67
2019-01-11T12:30:05.016Z,29.93
2019-01-11T12:32:33.658Z,28.43
2019-01-11T12:35:02.546Z,27.53
2019-01-11T12:37:31.242Z,26.80
2019-01-11T12:39:59.905Z,31.93
2019-01-11T12:42:28.877Z,28.10
2019-01-11T12:44:57.481Z,27.50
2019-01-11T12:47:26.162Z,26.30
2019-01-11T12:49:54.886Z,28.80
2019-01-11T12:52:23.642Z,28.50
2019-01-11T12:54:52.221Z,36.70
2019-01-11T12:57:20.847Z,28.40
2019-01-11T12:59:49.502Z,31.50
2019-01-11T13:02:18.177Z,32.80
2019-01-11T13:04:46.974Z,31.60
2019-01-11T13:07:15.695Z,28.13
2019-01-11T13:09:44.594Z,28.30
2019-01-11T13:12:13.254Z,28.90
2019-01-11T13:14:41.952Z,30.10
2019-01-11T13:17:10.613Z,31.20
2019-01-11T13:19:39.330Z,31.50
2019-01-11T13:22:07.977Z,30.27
2019-01-11T13:24:36.970Z,30.90
2019-01-11T13:27:05.730Z,28.73
2019-01-11T13:29:34.461Z,28.27
2019-01-11T13:32:03.469Z,29.37
2019-01-11T13:34:32.884Z,29.50
2019-01-11T13:37:01.522Z,34.33
2019-01-11T13:39:30.605Z,32.43
2019-01-11T13:41:59.206Z,26.47
2019-01-11T13:44:27.974Z,31.23
2019-01-11T13:46:56.579Z,27.60
2019-01-11T13:49:25.260Z,29.10
2019-01-11T13:51:55.142Z,29.57
2019-01-11T13:54:23.778Z,27.67
2019-01-11T13:56:52.489Z,23.73
2019-01-11T13:59:21.136Z,30.40
2019-01-11T14:01:49.865Z,26.63
2019-01-11T14:04:18.521Z,29.77
2019-01-11T14:06:47.185Z,29.30
2019-01-11T14:09:15.957Z,24.60
2019-01-11T14:11:44.644Z,27.27
2019-01-11T14:14:13.241Z,28.43
2019-01-11T14:16:42.001Z,24.40
2019-01-11T14:19:10.710Z,30.07
2019-01-11T14:21:39.413Z,40.63
2019-01-11T14:24:08.120Z,51.30
2019-01-11T14:26:36.761Z,32.20
2019-01-11T14:29:05.478Z,28.23
2019-01-11T14:31:34.137Z,25.07
2019-01-11T14:34:02.858Z,26.47
2019-01-11T14:36:31.526Z,30.20
2019-01-11T14:39:00.230Z,28.23
2019-01-11T14:41:29.074Z,28.07
2019-01-11T14:43:57.838Z,32.40
2019-01-11T14:46:26.499Z,28.63
2019-01-11T14:48:55.145Z,30.63
2019-01-11T14:51:23.826Z,32.27
2019-01-11T14:53:52.541Z,27.83
2019-01-11T14:56:21.209Z,24.80
2019-01-11T14:58:49.917Z,26.47
2019-01-11T15:01:18.886Z,29.70
2019-01-11T15:03:47.561Z,25.47
2019-01-11T15:06:16.289Z,33.53
2019-01-11T15:08:44.929Z,25.40
2019-01-11T15:11:13.651Z,29.17
2019-01-11T15:13:42.353Z,23.77
2019-01-11T15:16:10.984Z,23.83
2019-01-11T15:18:39.718Z,23.33
2019-01-11T15:21:08.357Z,23.13
2019-01-11T15:23:37.077Z,22.93
2019-01-11T15:26:05.736Z,24.40
2019-01-11T15:28:34.430Z,23.10
2019-01-11T15:31:03.115Z,23.20
2019-01-11T15:33:32.145Z,20.60
2019-01-11T15:36:00.808Z,21.87
2019-01-11T15:38:29.553Z,19.00
2019-01-11T15:40:58.153Z,20.60
2019-01-11T15:43:27.138Z,20.90
2019-01-11T15:46:02.448Z,32.80
2019-01-11T15:48:45.349Z,26.20
2019-01-11T15:51:14.864Z,18.63
2019-01-11T15:53:43.490Z,23.93
2019-01-11T15:56:12.778Z,26.87
2019-01-11T15:58:41.377Z,23.10
2019-01-11T16:01:10.063Z,19.53
2019-01-11T16:03:38.772Z,21.97
2019-01-11T16:06:24.753Z,16.67
2019-01-11T16:09:18.668Z,17.37
2019-01-11T16:11:50.630Z,18.97
2019-01-11T16:14:44.953Z,25.07
2019-01-11T16:17:15.216Z,29.80
2019-01-11T16:19:44.942Z,21.07
2019-01-11T16:22:13.577Z,19.90
2019-01-11T16:24:42.268Z,19.13
2019-01-11T16:27:11.076Z,18.13
2019-01-11T16:29:39.821Z,16.83
2019-01-11T16:32:08.938Z,20.67
2019-01-11T16:34:37.776Z,17.20
2019-01-11T16:37:06.507Z,15.90
2019-01-11T16:39:35.373Z,19.30
2019-01-11T16:42:03.982Z,18.70
2019-01-11T16:44:33.017Z,18.20
2019-01-11T16:47:01.927Z,18.53
2019-01-11T16:49:30.829Z,19.97
2019-01-11T16:51:59.570Z,21.77
2019-01-11T16:54:28.232Z,22.63
2019-01-11T16:56:56.954Z,23.57
2019-01-11T16:59:25.598Z,21.90
2019-01-11T17:01:54.526Z,20.03
2019-01-11T17:04:23.225Z,22.27
2019-01-11T17:06:51.882Z,18.97
2019-01-11T17:09:20.583Z,19.83
2019-01-11T17:11:49.293Z,21.97
2019-01-11T17:14:18.202Z,20.50
2019-01-11T17:16:46.834Z,20.07
2019-01-11T17:19:15.555Z,17.93
2019-01-11T17:21:44.501Z,22.00
2019-01-11T17:24:13.171Z,19.53
2019-01-11T17:26:41.901Z,19.90
2019-01-11T17:29:10.557Z,19.10
2019-01-11T17:31:39.259Z,22.00
2019-01-11T17:34:07.958Z,21.60
2019-01-11T17:36:36.618Z,21.53
2019-01-11T17:39:08.126Z,20.20
2019-01-11T17:41:36.797Z,20.63
2019-01-11T17:44:05.458Z,19.37
2019-01-11T17:46:34.101Z,20.03
2019-01-11T17:49:02.837Z,19.63
2019-01-11T17:51:31.478Z,20.60
2019-01-11T17:54:00.169Z,19.73
2019-01-11T17:56:28.881Z,22.63
2019-01-11T17:58:57.526Z,20.30
2019-01-11T18:01:26.222Z,19.60
2019-01-11T18:03:54.941Z,21.00
2019-01-11T18:06:24.608Z,18.77
2019-01-11T18:08:53.305Z,20.83
2019-01-11T18:11:22.006Z,19.87
2019-01-11T18:13:50.675Z,18.90
2019-01-11T18:16:19.354Z,18.57
2019-01-11T18:18:48.063Z,18.70
2019-01-11T18:21:16.718Z,19.03
2019-01-11T18:23:45.422Z,21.57
2019-01-11T18:26:14.118Z,18.63
2019-01-11T18:28:42.774Z,18.03
2019-01-11T18:31:11.722Z,18.33
2019-01-11T18:33:40.391Z,21.40
2019-01-11T18:36:09.032Z,20.13
2019-01-11T18:38:37.619Z,22.80
2019-01-11T18:41:06.333Z,21.63
2019-01-11T18:43:34.994Z,20.77
2019-01-11T18:46:03.569Z,19.47
2019-01-11T18:48:32.189Z,20.27
2019-01-11T18:51:00.846Z,21.63
2019-01-11T18:53:29.537Z,21.10
2019-01-11T18:55:58.245Z,19.33
2019-01-11T18:58:26.932Z,22.43
2019-01-11T19:00:55.601Z,19.13
2019-01-11T19:03:24.351Z,22.67
2019-01-11T19:05:53.063Z,20.57
2019-01-11T19:08:21.773Z,20.70
2019-01-11T19:10:50.474Z,20.80
2019-01-11T19:13:19.142Z,21.23
2019-01-11T19:15:47.822Z,21.53
2019-01-11T19:18:16.526Z,20.33
2019-01-11T19:20:45.189Z,17.23
2019-01-11T19:23:20.142Z,19.70
2019-01-11T19:25:44.405Z,19.23
2019-01-11T19:28:13.085Z,19.07
2019-01-11T19:30:41.794Z,20.23
2019-01-11T19:33:10.454Z,17.27
2019-01-11T19:35:39.644Z,17.43
2019-01-11T19:38:09.431Z,17.50
2019-01-11T19:40:38.085Z,19.13
2019-01-11T19:43:06.775Z,18.70
2019-01-11T19:45:35.416Z,19.47
2019-01-11T19:48:04.142Z,16.63
2019-01-11T19:50:32.834Z,20.50
2019-01-11T19:53:02.363Z,19.37
2019-01-11T19:55:31.014Z,19.63
2019-01-11T19:57:59.726Z,19.67
2019-01-11T20:00:28.982Z,20.23
2019-01-11T20:02:57.654Z,18.17
2019-01-11T20:05:26.697Z,19.10
2019-01-11T20:07:55.445Z,16.33
2019-01-11T20:10:26.687Z,20.57
2019-01-11T20:12:55.431Z,21.87
2019-01-11T20:15:24.147Z,22.53
2019-01-11T20:17:52.845Z,19.60
2019-01-11T20:20:21.561Z,19.63
2019-01-11T20:22:50.337Z,20.03
2019-01-11T20:25:20.121Z,19.60
2019-01-11T20:27:49.069Z,19.67
2019-01-11T20:30:20.116Z,22.33
2019-01-11T20:32:48.756Z,20.70
2019-01-11T20:35:17.405Z,23.50
2019-01-11T20:37:46.167Z,22.60
2019-01-11T20:40:15.657Z,22.57
2019-01-11T20:42:44.524Z,22.10
2019-01-11T20:45:15.089Z,23.83
2019-01-11T20:47:43.674Z,25.13
2019-01-11T20:50:15.006Z,23.80
2019-01-11T20:52:43.637Z,23.17
2019-01-11T20:55:12.521Z,22.90
2019-01-11T20:57:41.239Z,24.47
2019-01-11T21:00:13.957Z,23.20
2019-01-11T21:02:42.606Z,23.73
2019-01-11T21:05:11.266Z,22.73
2019-01-11T21:07:39.954Z,25.20
2019-01-11T21:10:09.342Z,26.43
2019-01-11T21:12:42.351Z,26.07
2019-01-11T21:15:11.556Z,27.77
2019-01-11T21:17:40.227Z,27.00
2019-01-11T21:20:11.022Z,23.33
2019-01-11T21:22:39.670Z,27.30
2019-01-11T21:25:09.883Z,28.23
2019-01-11T21:27:38.583Z,29.47
2019-01-11T21:30:11.562Z,29.97
2019-01-11T21:32:40.227Z,28.03
2019-01-11T21:35:08.992Z,27.50
2019-01-11T21:37:37.589Z,27.70
2019-01-11T21:40:06.350Z,30.63
2019-01-11T21:42:34.961Z,27.83
2019-01-11T21:45:03.728Z,29.23
2019-01-11T21:47:32.313Z,29.87
2019-01-11T21:50:00.915Z,27.60
2019-01-11T21:52:29.652Z,29.63
2019-01-11T21:54:58.292Z,31.20
2019-01-11T21:57:26.972Z,28.47
2019-01-11T21:59:55.938Z,31.67
2019-01-11T22:02:24.538Z,32.27
2019-01-11T22:04:53.163Z,29.73
2019-01-11T22:07:21.821Z,31.47
2019-01-11T22:09:50.620Z,31.13
2019-01-11T22:12:19.313Z,33.60
2019-01-11T22:14:48.224Z,35.37
2019-01-11T22:17:16.886Z,37.87
2019-01-11T22:19:45.922Z,34.60
2019-01-11T22:22:14.575Z,33.10
2019-01-11T22:24:43.386Z,32.93
2019-01-11T22:27:12.318Z,38.50
2019-01-11T22:29:41.069Z,30.33
2019-01-11T22:32:09.750Z,29.17
2019-01-11T22:34:38.378Z,30.03
2019-01-11T22:37:07.086Z,31.20
2019-01-11T22:39:35.749Z,32.00
2019-01-11T22:42:04.506Z,29.17
2019-01-11T22:44:33.123Z,32.67
2019-01-11T22:47:02.106Z,33.43
2019-01-11T22:49:31.741Z,33.07
2019-01-11T22:52:00.406Z,33.93
2019-01-11T22:54:29.414Z,31.47
2019-01-11T22:56:58.078Z,34.10
2019-01-11T22:59:26.653Z,33.47
2019-01-11T23:02:14.381Z,29.80
2019-01-11T23:04:43.240Z,30.50
2019-01-11T23:07:44.264Z,33.00
2019-01-11T23:10:43.921Z,29.13
2019-01-11T23:13:16.606Z,32.47
2019-01-11T23:15:48.982Z,28.73
2019-01-11T23:18:23.062Z,29.63
2019-01-11T23:20:54.439Z,30.70
2019-01-11T23:23:23.073Z,31.97
2019-01-11T23:25:51.750Z,28.50
2019-01-11T23:28:20.400Z,28.83
2019-01-11T23:30:49.428Z,31.27
2019-01-11T23:33:18.914Z,29.87
2019-01-11T23:35:47.583Z,28.37
2019-01-11T23:38:16.701Z,27.03
2019-01-11T23:40:45.370Z,27.40
2019-01-11T23:43:14.069Z,36.83
2019-01-11T23:45:42.735Z,30.73
2019-01-11T23:48:11.310Z,32.40
2019-01-11T23:50:39.981Z,27.37
2019-01-11T23:53:08.593Z,29.83
2019-01-11T23:55:37.303Z,32.13
2019-01-11T23:58:05.950Z,28.90
